Time;durP1;ratioP1;P1;durP2;ratioP2;P2;SDS_P1;SDS_P2;PMS_P1;PMS_P2;Temp;Humidity;BMP_temperature;BMP_pressure;BME280_temperature;BME280_humidity;BME280_pressure;Samples;Min_cycle;Max_cycle;Signal;HPM_P1;HPM_P2
2023/02/05 00:02:18;;;;;;;24.53;14.00;;;8.90;99.90;;;;;;5050320;28;20208;-67
2023/02/05 00:04:43;;;;;;;24.13;15.37;;;9.00;99.90;;;;;;5043990;28;20235;-63
2023/02/05 00:07:09;;;;;;;27.03;15.03;;;9.00;99.90;;;;;;5018677;28;20432;-63
2023/02/05 00:09:35;;;;;;;24.40;14.50;;;9.10;99.90;;;;;;5052824;28;20665;-63
2023/02/05 00:12:01;;;;;;;25.43;14.87;;;9.00;99.90;;;;;;5051266;28;20580;-63
2023/02/05 00:14:28;;;;;;;29.63;16.30;;;9.10;99.90;;;;;;5034255;28;20436;-63
2023/02/05 00:16:53;;;;;;;26.67;15.10;;;9.00;99.90;;;;;;5052501;28;20973;-63
2023/02/05 00:19:19;;;;;;;22.90;15.87;;;9.00;99.90;;;;;;5053000;28;20411;-65
2023/02/05 00:21:45;;;;;;;24.10;15.77;;;9.00;99.90;;;;;;5050538;28;20189;-63
2023/02/05 00:24:11;;;;;;;25.43;14.50;;;9.00;99.90;;;;;;5034164;28;20194;-64
2023/02/05 00:26:37;;;;;;;33.70;17.40;;;9.00;99.90;;;;;;5032636;28;20441;-63
2023/02/05 00:29:03;;;;;;;20.87;14.47;;;9.00;99.90;;;;;;5043215;28;20844;-63
2023/02/05 00:31:29;;;;;;;21.10;14.80;;;9.00;99.90;;;;;;5052630;28;20464;-63
2023/02/05 00:33:56;;;;;;;22.10;15.10;;;9.00;99.90;;;;;;5052023;28;20442;-63
2023/02/05 00:36:22;;;;;;;20.27;14.60;;;9.10;99.90;;;;;;5050930;28;20508;-63
2023/02/05 00:38:49;;;;;;;21.90;14.33;;;9.10;99.90;;;;;;5044491;28;21001;-63
2023/02/05 00:41:15;;;;;;;27.67;16.60;;;9.00;99.90;;;;;;5055614;28;20508;-63
2023/02/05 00:43:42;;;;;;;24.50;14.87;;;9.10;99.90;;;;;;5066667;28;20464;-63
2023/02/05 00:46:09;;;;;;;28.30;16.20;;;9.10;99.90;;;;;;5053576;28;20899;-63
2023/02/05 00:48:35;;;;;;;29.23;16.23;;;9.10;99.90;;;;;;5072168;28;20422;-63
2023/02/05 00:51:01;;;;;;;30.40;17.13;;;9.20;99.90;;;;;;5071775;28;20955;-63
2023/02/05 00:53:27;;;;;;;28.20;15.80;;;9.20;99.90;;;;;;5070103;28;20237;-63
2023/02/05 00:55:53;;;;;;;23.33;14.73;;;9.10;99.90;;;;;;5072847;28;20173;-63
2023/02/05 00:58:19;;;;;;;27.60;16.33;;;9.20;99.90;;;;;;5071766;28;20431;-63
2023/02/05 01:00:45;;;;;;;21.73;15.50;;;9.20;99.90;;;;;;5069950;28;20968;-63
2023/02/05 01:03:12;;;;;;;20.63;14.80;;;9.20;99.90;;;;;;5071517;28;20174;-63
2023/02/05 01:05:39;;;;;;;22.57;16.27;;;9.20;99.90;;;;;;5064121;28;20499;-63
2023/02/05 01:08:06;;;;;;;23.50;14.90;;;9.20;99.90;;;;;;5070202;28;20435;-63
2023/02/05 01:10:32;;;;;;;18.20;14.10;;;9.20;99.90;;;;;;5070836;28;20478;-63
2023/02/05 01:13:00;;;;;;;18.80;15.57;;;9.20;99.90;;;;;;5070176;28;20471;-63
2023/02/05 01:15:26;;;;;;;23.10;15.80;;;9.20;99.90;;;;;;5070119;28;20489;-63
2023/02/05 01:17:51;;;;;;;28.30;15.87;;;9.20;99.90;;;;;;5072595;28;20259;-63
2023/02/05 01:20:17;;;;;;;24.90;15.87;;;9.20;99.90;;;;;;5070257;28;20596;-64
2023/02/05 01:22:43;;;;;;;25.77;15.53;;;9.20;99.90;;;;;;5070483;28;20189;-63
2023/02/05 01:25:09;;;;;;;23.17;15.43;;;9.20;99.90;;;;;;5071714;28;20453;-64
2023/02/05 01:27:36;;;;;;;21.13;15.03;;;9.20;99.90;;;;;;5051584;28;20212;-63
2023/02/05 01:30:02;;;;;;;24.70;15.87;;;9.20;99.90;;;;;;5070353;28;20505;-63
2023/02/05 01:32:29;;;;;;;25.93;15.50;;;9.20;99.90;;;;;;5068355;28;20461;-64
2023/02/05 01:34:54;;;;;;;23.90;15.60;;;9.20;99.90;;;;;;5070002;28;20439;-64
2023/02/05 01:37:20;;;;;;;20.40;14.53;;;9.20;99.90;;;;;;5072520;28;20736;-64
2023/02/05 01:39:46;;;;;;;21.50;14.70;;;9.20;99.90;;;;;;5057196;28;20190;-64
2023/02/05 01:42:25;;;;;;;28.23;16.90;;;9.20;99.90;;;;;;5057155;28;20521;-64
2023/02/05 01:45:21;;;;;;;21.83;15.10;;;9.20;99.90;;;;;;5057514;28;20190;-62
2023/02/05 01:47:49;;;;;;;23.30;15.60;;;9.20;99.90;;;;;;5052745;28;20431;-62
2023/02/05 01:50:17;;;;;;;19.50;13.97;;;9.20;99.90;;;;;;5064460;28;20466;-62
2023/02/05 01:52:44;;;;;;;22.93;15.17;;;9.30;99.90;;;;;;5074803;28;20533;-62
2023/02/05 01:55:11;;;;;;;24.57;15.83;;;9.20;99.90;;;;;;5076330;28;20407;-62
2023/02/05 01:57:37;;;;;;;23.80;16.00;;;9.20;99.90;;;;;;5074324;28;20427;-62
2023/02/05 02:00:05;;;;;;;24.23;16.43;;;9.20;99.90;;;;;;5075037;28;20542;-63
2023/02/05 02:02:31;;;;;;;27.00;16.30;;;9.10;99.90;;;;;;5074303;28;20759;-62
2023/02/05 02:05:01;;;;;;;24.50;15.30;;;9.20;99.90;;;;;;5074958;28;20440;-62
2023/02/05 02:07:27;;;;;;;19.33;15.50;;;9.20;99.90;;;;;;5074407;28;20488;-63
2023/02/05 02:09:53;;;;;;;22.20;16.00;;;9.20;99.90;;;;;;5072675;28;20471;-64
2023/02/05 02:12:27;;;;;;;26.40;16.77;;;9.30;99.90;;;;;;5056818;28;20545;-62
2023/02/05 02:14:58;;;;;;;27.50;16.27;;;9.30;99.90;;;;;;5069012;28;20434;-62
2023/02/05 02:17:26;;;;;;;22.27;16.60;;;9.30;99.90;;;;;;5073569;28;20479;-63
2023/02/05 02:19:59;;;;;;;26.13;16.47;;;9.20;99.90;;;;;;5055979;28;20431;-62
2023/02/05 02:22:35;;;;;;;28.67;15.10;;;9.20;99.90;;;;;;5072946;28;20434;-63
2023/02/05 02:25:26;;;;;;;19.53;14.93;;;9.20;99.90;;;;;;5074314;28;20929;-63
2023/02/05 02:28:12;;;;;;;25.00;15.43;;;9.30;99.90;;;;;;5074643;28;20439;-63
2023/02/05 02:31:12;;;;;;;19.70;15.47;;;9.30;99.90;;;;;;5072481;28;20548;-63
2023/02/05 02:33:43;;;;;;;23.30;15.10;;;9.30;99.90;;;;;;5075012;28;20430;-62
2023/02/05 02:36:19;;;;;;;23.23;16.10;;;9.30;99.90;;;;;;5074273;28;20441;-62
2023/02/05 02:39:01;;;;;;;29.37;16.57;;;9.30;99.90;;;;;;5071049;28;20434;-63
2023/02/05 02:41:40;;;;;;;26.20;15.10;;;9.30;99.90;;;;;;5039923;28;20827;-67
2023/02/05 02:44:18;;;;;;;23.20;15.63;;;9.30;99.90;;;;;;5054246;28;20526;-63
2023/02/05 02:46:53;;;;;;;18.37;15.20;;;9.40;99.90;;;;;;5052239;28;20803;-63
2023/02/05 02:49:35;;;;;;;23.33;15.77;;;9.40;99.90;;;;;;5052535;28;20790;-63
2023/02/05 02:52:05;;;;;;;21.70;16.33;;;9.40;99.90;;;;;;5052444;28;20448;-63
2023/02/05 02:54:32;;;;;;;26.57;15.97;;;9.40;99.90;;;;;;5052183;28;20489;-63
2023/02/05 02:57:00;;;;;;;26.27;16.50;;;9.40;99.90;;;;;;5052775;28;20408;-63
2023/02/05 02:59:29;;;;;;;22.83;16.20;;;9.40;99.90;;;;;;5053508;28;20543;-63
2023/02/05 03:01:58;;;;;;;30.20;16.77;;;9.40;99.90;;;;;;5042913;28;20524;-63
2023/02/05 03:04:29;;;;;;;19.90;14.63;;;9.40;99.90;;;;;;5036728;28;20511;-63
2023/02/05 03:07:11;;;;;;;26.37;16.27;;;9.40;99.90;;;;;;5053975;28;20420;-63
2023/02/05 03:09:46;;;;;;;20.50;16.80;;;9.40;99.90;;;;;;5034086;28;20442;-63
2023/02/05 03:12:11;;;;;;;27.00;15.60;;;9.40;99.90;;;;;;5044266;28;20475;-63
2023/02/05 03:14:37;;;;;;;26.47;15.70;;;9.40;99.90;;;;;;5051684;28;20467;-63
2023/02/05 03:17:17;;;;;;;31.73;16.07;;;9.40;99.90;;;;;;5033635;28;20189;-63
2023/02/05 03:19:44;;;;;;;28.97;15.67;;;9.50;99.90;;;;;;5048308;28;20428;-63
2023/02/05 03:22:10;;;;;;;27.37;15.97;;;9.50;99.90;;;;;;5051659;28;20917;-63
2023/02/05 03:24:37;;;;;;;25.63;16.77;;;9.60;99.90;;;;;;5052005;28;20550;-63
2023/02/05 03:27:03;;;;;;;24.93;14.63;;;9.50;99.90;;;;;;5052063;28;20226;-63
2023/02/05 03:29:32;;;;;;;26.57;16.57;;;9.70;99.90;;;;;;5049980;28;20489;-63
2023/02/05 03:32:13;;;;;;;25.70;15.70;;;9.60;99.90;;;;;;5051170;28;20422;-63
2023/02/05 03:35:00;;;;;;;27.33;16.47;;;9.60;99.90;;;;;;5033002;28;20501;-63
2023/02/05 03:38:06;;;;;;;21.90;15.80;;;9.70;99.90;;;;;;5029539;28;20515;-63
2023/02/05 03:40:35;;;;;;;16.53;14.13;;;9.60;99.90;;;;;;5009149;28;1212506;-63
2023/02/05 03:43:20;;;;;;;28.83;15.53;;;9.60;99.90;;;;;;5053157;28;20327;-63
2023/02/05 03:45:58;;;;;;;22.47;14.47;;;9.60;99.90;;;;;;5018075;28;20844;-63
2023/02/05 03:48:50;;;;;;;22.90;15.60;;;9.60;99.90;;;;;;5054037;28;20454;-63
2023/02/05 03:51:22;;;;;;;27.93;16.10;;;9.60;99.90;;;;;;5034784;28;20544;-63
2023/02/05 03:54:04;;;;;;;25.57;15.40;;;9.50;99.90;;;;;;5051980;28;20447;-63
2023/02/05 03:56:38;;;;;;;24.10;15.20;;;9.50;99.90;;;;;;5052501;28;20475;-63
2023/02/05 03:59:04;;;;;;;21.40;15.00;;;9.50;99.90;;;;;;5033908;28;20430;-63
2023/02/05 04:01:32;;;;;;;24.23;15.90;;;9.50;99.90;;;;;;5025471;28;20954;-65
2023/02/05 04:03:57;;;;;;;23.03;16.00;;;9.60;99.90;;;;;;5052509;28;20429;-63
2023/02/05 04:06:23;;;;;;;23.77;16.17;;;9.50;99.90;;;;;;5052589;28;20436;-63
2023/02/05 04:08:48;;;;;;;27.27;14.20;;;9.20;99.90;;;;;;5051724;28;20182;-63
2023/02/05 04:11:14;;;;;;;25.97;15.90;;;9.20;99.90;;;;;;5051836;28;20664;-63
2023/02/05 04:13:40;;;;;;;25.00;16.03;;;9.30;99.90;;;;;;5035314;28;20190;-63
2023/02/05 04:16:05;;;;;;;27.40;14.37;;;9.30;99.90;;;;;;5052424;28;20638;-63
2023/02/05 04:18:31;;;;;;;20.77;15.47;;;9.40;99.90;;;;;;5052682;28;20181;-63
2023/02/05 04:20:58;;;;;;;24.13;14.53;;;9.40;99.90;;;;;;5051866;28;20631;-65
2023/02/05 04:23:24;;;;;;;23.87;15.47;;;9.40;99.90;;;;;;5036013;28;20239;-64
2023/02/05 04:25:53;;;;;;;22.67;15.57;;;9.40;99.90;;;;;;5048486;28;20822;-63
2023/02/05 04:28:19;;;;;;;25.70;15.13;;;9.50;99.90;;;;;;5051999;28;20178;-63
2023/02/05 04:30:45;;;;;;;26.23;15.80;;;9.40;99.90;;;;;;5052849;28;20460;-64
2023/02/05 04:33:11;;;;;;;28.67;16.87;;;9.50;99.90;;;;;;5050456;28;20431;-63
2023/02/05 04:35:36;;;;;;;23.13;15.03;;;9.50;99.90;;;;;;5047289;28;20623;-63
2023/02/05 04:38:02;;;;;;;25.73;16.37;;;9.50;99.90;;;;;;5028832;28;20182;-63
2023/02/05 04:40:28;;;;;;;27.30;17.97;;;9.50;99.90;;;;;;5051580;28;20736;-63
2023/02/05 04:42:54;;;;;;;31.67;16.40;;;9.50;99.90;;;;;;5051154;28;20394;-63
2023/02/05 04:45:21;;;;;;;27.20;14.90;;;9.50;99.90;;;;;;5050474;28;20428;-63
2023/02/05 04:47:47;;;;;;;20.20;13.17;;;9.50;99.90;;;;;;5034630;28;20200;-63
2023/02/05 04:50:13;;;;;;;22.53;15.00;;;9.50;99.90;;;;;;5052922;28;20436;-63
2023/02/05 04:52:39;;;;;;;25.97;16.33;;;9.60;99.90;;;;;;5012204;28;20937;-63
2023/02/05 04:55:05;;;;;;;28.50;17.13;;;9.60;99.90;;;;;;5033180;28;20180;-63
2023/02/05 04:57:30;;;;;;;24.37;16.57;;;9.60;99.90;;;;;;5050898;28;20245;-63
2023/02/05 04:59:56;;;;;;;27.67;16.97;;;9.60;99.90;;;;;;5051030;28;20432;-63
2023/02/05 05:02:23;;;;;;;32.63;17.60;;;9.60;99.90;;;;;;5052833;28;20170;-63
2023/02/05 05:04:48;;;;;;;23.53;15.90;;;9.60;99.90;;;;;;5050917;28;20193;-63
2023/02/05 05:07:15;;;;;;;28.50;17.47;;;9.70;99.90;;;;;;5051291;28;20424;-63
2023/02/05 05:09:41;;;;;;;28.63;17.47;;;9.70;99.90;;;;;;5051735;28;20558;-63
2023/02/05 05:12:07;;;;;;;28.00;16.37;;;9.70;99.90;;;;;;5051273;28;20898;-63
2023/02/05 05:14:33;;;;;;;28.53;16.10;;;9.70;99.90;;;;;;5029954;28;20525;-63
2023/02/05 05:16:58;;;;;;;35.70;17.20;;;9.70;99.90;;;;;;5051381;28;20532;-63
2023/02/05 05:19:24;;;;;;;31.93;15.37;;;9.70;99.90;;;;;;5051975;28;20251;-63
2023/02/05 05:21:50;;;;;;;29.20;17.70;;;9.70;99.90;;;;;;5033848;28;20186;-63
2023/02/05 05:24:15;;;;;;;32.80;18.17;;;9.70;99.90;;;;;;5038970;28;20189;-63
2023/02/05 05:26:43;;;;;;;29.93;18.00;;;9.70;99.90;;;;;;5049205;28;20186;-63
2023/02/05 05:29:13;;;;;;;33.90;17.83;;;9.70;99.90;;;;;;5034639;28;20623;-63
2023/02/05 05:31:40;;;;;;;26.30;15.37;;;9.70;99.90;;;;;;5050851;28;20556;-63
2023/02/05 05:34:05;;;;;;;24.50;16.50;;;9.70;99.90;;;;;;5033562;28;20911;-63
2023/02/05 05:36:31;;;;;;;34.10;15.90;;;9.70;99.90;;;;;;5033999;28;20520;-63
2023/02/05 05:43:45;;;;;;;31.60;15.80;;;9.70;99.90;;;;;;5038622;28;20479;-63
2023/02/05 05:44:27;;;;;;;27.50;16.80;;;9.70;99.90;;;;;;5052211;28;20435;-63
2023/02/05 05:46:52;;;;;;;22.10;15.57;;;9.70;99.90;;;;;;5050539;28;20433;-63
2023/02/05 05:49:18;;;;;;;26.23;15.03;;;9.70;99.90;;;;;;5040906;28;20206;-63
2023/02/05 05:51:44;;;;;;;24.07;15.33;;;9.70;99.90;;;;;;5051611;28;20191;-62
2023/02/05 05:54:09;;;;;;;28.73;15.80;;;9.80;99.90;;;;;;5048217;28;20185;-63
2023/02/05 05:56:35;;;;;;;26.43;15.53;;;9.80;99.90;;;;;;5035998;28;20197;-63
2023/02/05 05:59:01;;;;;;;22.03;14.37;;;9.90;99.90;;;;;;5051649;28;20529;-63
2023/02/05 06:01:26;;;;;;;29.03;17.13;;;9.80;99.90;;;;;;5049113;28;20194;-63
2023/02/05 06:03:52;;;;;;;23.00;15.53;;;9.80;99.90;;;;;;5032541;28;20184;-63
2023/02/05 06:06:18;;;;;;;22.73;13.50;;;9.80;99.90;;;;;;5034272;28;20190;-64
2023/02/05 06:08:44;;;;;;;22.60;14.83;;;9.80;99.90;;;;;;5045437;28;20416;-63
2023/02/05 06:11:10;;;;;;;24.23;14.83;;;9.80;99.90;;;;;;5039598;28;20706;-63
2023/02/05 06:13:36;;;;;;;19.47;13.80;;;9.90;99.90;;;;;;5050609;28;20193;-63
2023/02/05 06:16:02;;;;;;;20.60;14.30;;;9.90;99.90;;;;;;5050079;28;20950;-63
2023/02/05 06:18:29;;;;;;;21.53;14.57;;;9.90;99.90;;;;;;5029665;28;20426;-63
2023/02/05 06:20:54;;;;;;;22.87;12.97;;;9.90;99.90;;;;;;5031497;28;20452;-63
2023/02/05 06:23:20;;;;;;;22.13;13.40;;;10.00;99.90;;;;;;5049932;28;20432;-63
2023/02/05 06:25:46;;;;;;;26.13;15.40;;;10.00;99.90;;;;;;5045782;28;20182;-63
2023/02/05 06:28:12;;;;;;;22.90;14.53;;;10.00;99.90;;;;;;5050670;28;20204;-63
2023/02/05 06:30:37;;;;;;;19.77;13.90;;;10.00;99.90;;;;;;5051899;28;20213;-62
2023/02/05 06:33:04;;;;;;;20.30;13.43;;;10.00;99.90;;;;;;5047796;28;20186;-62
2023/02/05 06:35:30;;;;;;;20.80;14.50;;;10.00;99.90;;;;;;5053929;28;20425;-63
2023/02/05 06:37:55;;;;;;;21.27;13.67;;;10.00;99.90;;;;;;5053314;28;20517;-62
2023/02/05 06:40:24;;;;;;;22.37;13.83;;;10.00;99.90;;;;;;5042242;28;20478;-62
2023/02/05 06:42:52;;;;;;;19.67;14.30;;;10.00;99.90;;;;;;5070777;28;20183;-66
2023/02/05 06:45:17;;;;;;;21.40;14.00;;;9.90;99.90;;;;;;5055298;28;20504;-62
2023/02/05 06:47:43;;;;;;;23.17;15.40;;;9.90;99.90;;;;;;5061626;28;20435;-63
2023/02/05 06:50:10;;;;;;;23.30;14.73;;;10.00;99.90;;;;;;5075329;28;20201;-62
2023/02/05 06:52:35;;;;;;;24.47;15.33;;;10.00;99.90;;;;;;5072786;28;20203;-62
2023/02/05 06:55:01;;;;;;;23.43;15.23;;;10.00;99.90;;;;;;5069962;28;20660;-63
2023/02/05 06:57:27;;;;;;;32.17;16.37;;;10.00;99.90;;;;;;5075190;28;20178;-64
2023/02/05 06:59:53;;;;;;;23.70;15.57;;;9.90;99.90;;;;;;5073079;28;20189;-62
2023/02/05 07:02:19;;;;;;;24.50;15.93;;;10.00;99.90;;;;;;5072401;28;20599;-62
2023/02/05 07:04:45;;;;;;;21.87;15.70;;;10.00;99.90;;;;;;5073663;28;20221;-63
2023/02/05 07:07:10;;;;;;;23.97;15.73;;;10.00;99.90;;;;;;5074567;28;20896;-62
2023/02/05 07:09:36;;;;;;;27.43;17.03;;;10.10;99.90;;;;;;5070495;28;20426;-62
2023/02/05 07:12:02;;;;;;;25.50;15.87;;;10.00;99.90;;;;;;5069851;28;20205;-62
2023/02/05 07:14:30;;;;;;;23.30;16.07;;;10.00;99.90;;;;;;5061707;28;20178;-62
2023/02/05 07:16:56;;;;;;;34.80;17.80;;;10.10;99.90;;;;;;5056541;28;20228;-62
2023/02/05 07:19:21;;;;;;;26.60;16.90;;;10.10;99.90;;;;;;5058464;28;20460;-63
2023/02/05 07:21:47;;;;;;;28.43;17.87;;;10.20;99.90;;;;;;5071826;28;20361;-63
2023/02/05 07:24:13;;;;;;;25.87;17.73;;;10.10;99.90;;;;;;5058219;28;20229;-62
2023/02/05 07:26:41;;;;;;;30.07;18.07;;;10.10;99.90;;;;;;5070184;28;20181;-62
2023/02/05 07:29:07;;;;;;;27.73;18.67;;;10.10;99.90;;;;;;5063012;28;20473;-62
2023/02/05 07:31:33;;;;;;;29.77;19.20;;;10.10;99.90;;;;;;5059477;28;20477;-62
2023/02/05 07:33:58;;;;;;;33.73;20.10;;;10.10;99.90;;;;;;5060573;28;20205;-62
2023/02/05 07:36:24;;;;;;;25.60;16.80;;;10.10;99.90;;;;;;5067832;28;20723;-62
2023/02/05 07:38:50;;;;;;;29.17;19.27;;;10.10;99.90;;;;;;5056755;28;20190;-63
2023/02/05 07:41:16;;;;;;;30.20;20.00;;;10.10;99.90;;;;;;5060873;28;20235;-62
2023/02/05 07:43:42;;;;;;;33.80;21.70;;;10.10;99.90;;;;;;5053121;28;20190;-62
2023/02/05 07:46:12;;;;;;;33.10;21.03;;;10.10;99.90;;;;;;5052514;28;20412;-62
2023/02/05 07:48:38;;;;;;;33.83;21.07;;;10.10;99.90;;;;;;5035399;28;20433;-63
2023/02/05 07:51:05;;;;;;;33.00;22.33;;;10.10;99.90;;;;;;5042458;28;20526;-63
2023/02/05 07:53:31;;;;;;;36.13;23.30;;;10.10;99.90;;;;;;5020332;28;20819;-62
2023/02/05 07:56:03;;;;;;;33.70;21.57;;;10.10;99.90;;;;;;5035011;28;20425;-63
2023/02/05 07:58:29;;;;;;;34.70;21.77;;;10.20;99.90;;;;;;5052593;28;20187;-63
2023/02/05 08:00:59;;;;;;;37.23;23.20;;;10.10;99.90;;;;;;5051550;28;20473;-62
2023/02/05 08:03:25;;;;;;;29.07;21.60;;;10.10;99.90;;;;;;5047146;28;20184;-62
2023/02/05 08:05:51;;;;;;;25.83;18.33;;;10.10;99.90;;;;;;5047906;28;20515;-63
2023/02/05 08:08:16;;;;;;;24.23;16.87;;;10.00;99.90;;;;;;5041029;28;20178;-62
2023/02/05 08:10:42;;;;;;;21.23;14.57;;;9.90;99.90;;;;;;5035490;28;20213;-62
2023/02/05 08:13:08;;;;;;;20.97;14.63;;;9.80;99.90;;;;;;5051604;28;20194;-62
2023/02/05 08:15:33;;;;;;;17.23;13.30;;;9.80;99.90;;;;;;5052368;28;20236;-62
2023/02/05 08:17:59;;;;;;;21.17;15.03;;;9.80;99.90;;;;;;5028944;28;20170;-63
2023/02/05 08:20:25;;;;;;;20.33;14.73;;;9.70;99.90;;;;;;5052970;28;20173;-63
2023/02/05 08:22:51;;;;;;;20.80;13.40;;;9.80;99.90;;;;;;5013828;28;20433;-62
2023/02/05 08:25:17;;;;;;;19.20;14.10;;;9.70;99.90;;;;;;5033248;28;20269;-62
2023/02/05 08:27:44;;;;;;;23.40;15.53;;;9.70;99.90;;;;;;5033382;28;20513;-62
2023/02/05 08:30:13;;;;;;;22.30;16.57;;;9.70;99.90;;;;;;5026422;28;20490;-62
2023/02/05 08:32:38;;;;;;;20.83;15.87;;;9.70;99.90;;;;;;5052174;28;20445;-62
2023/02/05 08:35:05;;;;;;;19.37;15.43;;;9.60;99.90;;;;;;5052778;28;20409;-62
2023/02/05 08:37:31;;;;;;;19.80;15.80;;;9.50;99.90;;;;;;5052464;28;20182;-62
2023/02/05 08:39:56;;;;;;;23.47;16.60;;;9.60;99.90;;;;;;5049095;28;20440;-62
2023/02/05 08:42:23;;;;;;;17.87;14.40;;;9.60;99.90;;;;;;5036276;28;20448;-62
2023/02/05 08:44:49;;;;;;;19.03;14.90;;;9.60;99.90;;;;;;5025674;28;20193;-63
2023/02/05 08:47:18;;;;;;;17.43;13.93;;;9.70;99.90;;;;;;5049499;28;20911;-62
2023/02/05 08:49:44;;;;;;;18.17;12.90;;;9.80;99.90;;;;;;5052794;28;20495;-62
2023/02/05 08:52:10;;;;;;;15.37;13.33;;;9.80;99.90;;;;;;5032300;28;20523;-63
2023/02/05 08:54:36;;;;;;;16.53;13.47;;;9.70;99.90;;;;;;5051872;28;20181;-64
2023/02/05 08:57:01;;;;;;;17.60;14.30;;;9.70;99.90;;;;;;5018139;28;20178;-63
2023/02/05 08:59:27;;;;;;;15.33;13.10;;;9.70;99.90;;;;;;5045516;28;20183;-62
2023/02/05 09:01:53;;;;;;;16.30;13.93;;;9.70;99.90;;;;;;5044698;28;20182;-69
2023/02/05 09:04:22;;;;;;;15.40;13.40;;;9.70;99.90;;;;;;5050428;28;20266;-65
2023/02/05 09:06:48;;;;;;;16.50;14.80;;;10.20;99.90;;;;;;5051351;28;20181;-65
2023/02/05 09:09:14;;;;;;;14.80;13.30;;;10.80;99.90;;;;;;5040874;28;20464;-65
2023/02/05 09:11:39;;;;;;;15.77;14.27;;;11.20;99.90;;;;;;5037097;28;20506;-65
2023/02/05 09:14:06;;;;;;;12.50;11.50;;;11.60;99.90;;;;;;5051872;28;20227;-65
2023/02/05 09:16:31;;;;;;;12.30;11.20;;;12.10;99.90;;;;;;5040646;28;20231;-65
2023/02/05 09:18:58;;;;;;;12.83;11.63;;;12.50;99.90;;;;;;5044019;28;20449;-65
2023/02/05 09:21:27;;;;;;;11.57;10.47;;;13.00;99.90;;;;;;5046140;28;20228;-66
2023/02/05 09:23:53;;;;;;;11.37;10.20;;;13.40;99.90;;;;;;5040717;28;20421;-66
2023/02/05 09:26:20;;;;;;;9.13;8.43;;;13.70;99.90;;;;;;5042404;28;20427;-66
2023/02/05 09:28:46;;;;;;;8.53;7.83;;;13.90;99.90;;;;;;5021629;28;20448;-66
2023/02/05 09:31:15;;;;;;;9.73;8.93;;;14.10;99.90;;;;;;5041450;28;20476;-66
2023/02/05 09:33:41;;;;;;;14.17;12.70;;;14.30;99.90;;;;;;5039721;28;20430;-68
2023/02/05 09:36:09;;;;;;;9.53;7.43;;;14.60;99.90;;;;;;5035143;28;20437;-67
2023/02/05 09:38:35;;;;;;;8.37;7.67;;;14.80;99.90;;;;;;5036426;28;20440;-66
2023/02/05 09:41:16;;;;;;;7.70;6.90;;;14.90;99.90;;;;;;5037450;28;20456;-67
2023/02/05 09:43:51;;;;;;;7.33;6.73;;;15.10;99.90;;;;;;5038022;28;20935;-66
2023/02/05 09:46:52;;;;;;;5.10;4.80;;;15.00;99.90;;;;;;5040297;28;20443;-66
2023/02/05 09:49:28;;;;;;;7.10;6.50;;;15.00;99.90;;;;;;5040349;28;20533;-67
2023/02/05 09:52:08;;;;;;;3.80;3.50;;;15.00;99.90;;;;;;5040602;28;20453;-66
2023/02/05 09:54:45;;;;;;;4.80;4.40;;;15.00;99.90;;;;;;5039865;28;20787;-66
2023/02/05 09:57:16;;;;;;;4.70;4.30;;;14.90;99.90;;;;;;5038671;28;20430;-67
2023/02/05 09:59:45;;;;;;;3.50;3.40;;;15.00;99.90;;;;;;5025016;28;20456;-66
2023/02/05 10:02:26;;;;;;;4.53;4.23;;;15.00;99.90;;;;;;5041222;28;20425;-67
2023/02/05 10:04:53;;;;;;;5.13;4.73;;;15.10;99.90;;;;;;5039658;28;20967;-67
2023/02/05 10:07:34;;;;;;;4.03;3.73;;;15.30;99.90;;;;;;5040580;28;20461;-66
2023/02/05 10:10:25;;;;;;;3.40;3.10;;;15.30;99.90;;;;;;5043882;28;20506;-66
2023/02/05 10:12:51;;;;;;;12.13;10.87;;;15.40;99.90;;;;;;5035288;28;20847;-66
2023/02/05 10:15:37;;;;;;;7.60;6.80;;;15.50;99.90;;;;;;5026824;28;20429;-65
2023/02/05 10:18:16;;;;;;;3.47;3.27;;;15.50;99.90;;;;;;5047660;28;20530;-66
2023/02/05 10:21:11;;;;;;;6.07;3.80;;;15.50;99.40;;;;;;5046689;28;20413;-66
2023/02/05 10:23:49;;;;;;;4.03;3.83;;;15.30;98.20;;;;;;5043875;28;20438;-66
2023/02/05 10:26:18;;;;;;;2.90;2.80;;;14.90;99.90;;;;;;5041952;28;20525;-63
2023/02/05 10:29:14;;;;;;;3.23;2.77;;;14.80;99.20;;;;;;5045484;28;20986;-64
2023/02/05 10:31:43;;;;;;;2.97;2.67;;;14.30;99.20;;;;;;5045109;28;20440;-64
2023/02/05 10:34:35;;;;;;;3.00;2.80;;;13.90;99.90;;;;;;5045075;28;20427;-63
2023/02/05 10:37:04;;;;;;;2.80;2.70;;;13.00;99.90;;;;;;5041800;28;20531;-63
2023/02/05 10:39:30;;;;;;;3.37;3.10;;;12.60;99.90;;;;;;5040040;28;20476;-64
2023/02/05 10:42:00;;;;;;;2.60;2.50;;;12.30;99.90;;;;;;5055964;28;20764;-65
2023/02/05 10:44:37;;;;;;;2.80;2.57;;;12.00;99.90;;;;;;5060316;28;20930;-65
2023/02/05 10:47:12;;;;;;;2.50;2.27;;;11.80;99.90;;;;;;5060996;28;20426;-63
2023/02/05 10:49:54;;;;;;;4.00;2.87;;;11.60;99.90;;;;;;5062689;28;20464;-63
2023/02/05 10:52:20;;;;;;;3.10;3.00;;;11.20;99.90;;;;;;5059507;28;20432;-63
2023/02/05 10:54:46;;;;;;;3.80;3.60;;;11.00;99.90;;;;;;5062726;28;20446;-63
2023/02/05 10:57:17;;;;;;;3.07;2.63;;;10.90;99.90;;;;;;5062513;28;20259;-63
2023/02/05 10:59:54;;;;;;;3.63;3.43;;;10.80;99.90;;;;;;5061042;28;20547;-63
2023/02/05 11:02:21;;;;;;;2.67;2.57;;;10.70;99.90;;;;;;5042453;28;20446;-63
2023/02/05 11:05:01;;;;;;;3.10;2.90;;;10.50;99.90;;;;;;5061764;28;20487;-63
2023/02/05 11:07:47;;;;;;;3.20;3.10;;;10.40;99.90;;;;;;5062444;28;21017;-63
2023/02/05 11:10:16;;;;;;;3.30;3.10;;;10.40;99.90;;;;;;5062848;28;20947;-63
2023/02/05 11:12:53;;;;;;;3.33;3.10;;;10.40;99.90;;;;;;5063000;28;20477;-63
2023/02/05 11:15:25;;;;;;;4.50;4.20;;;10.30;99.90;;;;;;5044240;28;21015;-63
2023/02/05 11:18:00;;;;;;;3.47;3.27;;;10.20;99.90;;;;;;5047622;28;20813;-63
2023/02/05 11:20:36;;;;;;;2.90;2.80;;;10.10;99.90;;;;;;5063861;28;20452;-63
2023/02/05 11:23:20;;;;;;;3.33;3.13;;;10.20;99.90;;;;;;5062072;28;20514;-63
2023/02/05 11:26:05;;;;;;;3.90;3.60;;;10.00;99.90;;;;;;5065470;28;20528;-63
2023/02/05 11:28:38;;;;;;;3.97;3.77;;;10.00;99.90;;;;;;5060317;28;20885;-63
2023/02/05 11:31:24;;;;;;;3.83;3.53;;;9.90;99.90;;;;;;5061695;28;20464;-63
2023/02/05 11:33:51;;;;;;;4.40;4.10;;;9.90;99.90;;;;;;5061808;28;20443;-63
2023/02/05 11:36:22;;;;;;;4.00;3.80;;;9.90;99.90;;;;;;5061467;28;20765;-63
2023/02/05 11:38:52;;;;;;;4.70;4.30;;;9.90;99.90;;;;;;5063636;28;20422;-63
2023/02/05 11:41:46;;;;;;;4.67;4.27;;;9.90;99.90;;;;;;5046958;28;20467;-64
2023/02/05 11:44:34;;;;;;;4.80;4.50;;;9.90;99.90;;;;;;5041782;28;20440;-63
2023/02/05 11:47:01;;;;;;;4.03;3.83;;;9.90;99.90;;;;;;5041016;28;20414;-68
2023/02/05 11:49:34;;;;;;;3.90;3.77;;;10.00;99.90;;;;;;5041784;28;20407;-63
2023/02/05 11:52:07;;;;;;;220.27;141.97;;;10.00;99.90;;;;;;5041460;28;20866;-68
2023/02/05 11:54:34;;;;;;;53.30;36.83;;;9.90;99.90;;;;;;5043884;28;20435;-63
2023/02/05 11:57:04;;;;;;;5.00;4.70;;;9.90;99.90;;;;;;5042947;28;20559;-67
2023/02/05 11:59:30;;;;;;;4.70;4.50;;;9.80;99.90;;;;;;5023253;28;20441;-63
2023/02/05 12:02:27;;;;;;;4.53;4.33;;;9.80;99.90;;;;;;5042072;28;20429;-63
2023/02/05 12:05:26;;;;;;;5.00;4.80;;;9.80;99.90;;;;;;5036557;28;20461;-64
2023/02/05 12:08:37;;;;;;;4.57;4.37;;;9.70;99.90;;;;;;5001619;28;20445;-63
2023/02/05 12:11:29;;;;;;;4.30;4.10;;;9.70;99.90;;;;;;5023643;28;20480;-68
2023/02/05 12:14:15;;;;;;;4.40;4.20;;;9.70;99.90;;;;;;5022650;28;20446;-64
2023/02/05 12:16:56;;;;;;;4.23;3.97;;;9.70;99.90;;;;;;5042712;28;20940;-63
2023/02/05 12:19:32;;;;;;;3.80;3.60;;;9.60;99.90;;;;;;5040122;28;20683;-63
2023/02/05 12:22:44;;;;;;;3.90;3.60;;;9.60;99.90;;;;;;5025393;28;20520;-64
2023/02/05 12:25:19;;;;;;;4.00;3.80;;;9.50;99.90;;;;;;5027546;28;20425;-63
2023/02/05 12:27:57;;;;;;;5.53;3.60;;;9.50;99.90;;;;;;5021988;28;20436;-63
2023/02/05 12:30:38;;;;;;;5.53;4.27;;;9.50;99.90;;;;;;5037440;28;20622;-64
2023/02/05 12:33:31;;;;;;;5.40;5.00;;;9.50;99.90;;;;;;5038936;28;20596;-69
2023/02/05 12:36:24;;;;;;;6.53;5.93;;;9.40;99.90;;;;;;5017233;28;20436;-64
2023/02/05 12:39:43;;;;;;;7.27;6.67;;;9.40;99.90;;;;;;5038666;28;20784;-64
2023/02/05 12:42:33;;;;;;;7.40;6.70;;;9.40;99.90;;;;;;5005677;28;20473;-64
2023/02/05 12:45:18;;;;;;;6.73;6.10;;;9.30;99.90;;;;;;5040035;28;20447;-64
2023/02/05 12:48:03;;;;;;;6.90;6.37;;;9.00;99.90;;;;;;5061032;28;20433;-64
2023/02/05 12:50:53;;;;;;;5.70;5.20;;;9.00;99.90;;;;;;5055394;28;20452;-64
2023/02/05 12:53:21;;;;;;;5.90;5.47;;;9.10;99.90;;;;;;5060342;28;20470;-64
2023/02/05 12:56:15;;;;;;;5.93;5.50;;;9.10;99.90;;;;;;5060185;28;20424;-64
2023/02/05 12:58:53;;;;;;;5.90;5.27;;;9.10;99.90;;;;;;5061632;28;20432;-64
2023/02/05 13:01:26;;;;;;;6.03;5.40;;;9.10;99.90;;;;;;5059767;28;20477;-64